createdAt,value
2023-01-31T00:01:36.299Z,21.13
2023-01-31T00:04:06.530Z,20.92
2023-01-31T00:06:37.358Z,21.67
2023-01-31T00:09:07.141Z,21.43
2023-01-31T00:11:35.146Z,20.80
2023-01-31T00:14:04.669Z,22.25
2023-01-31T00:16:32.608Z,21.98
2023-01-31T00:19:00.528Z,22.17
2023-01-31T00:21:30.075Z,21.17
2023-01-31T00:23:58.459Z,21.45
2023-01-31T00:26:32.031Z,21.35
2023-01-31T00:29:02.350Z,20.63
2023-01-31T00:31:31.848Z,20.75
2023-01-31T00:33:59.836Z,20.60
2023-01-31T00:36:29.973Z,21.38
2023-01-31T00:38:59.717Z,21.23
2023-01-31T00:41:29.221Z,22.58
2023-01-31T00:43:57.609Z,21.13
2023-01-31T00:46:25.552Z,20.25
2023-01-31T00:48:53.844Z,20.63
2023-01-31T00:51:22.194Z,21.67
2023-01-31T00:53:50.428Z,20.60
2023-01-31T00:56:20.509Z,20.77
2023-01-31T00:58:47.837Z,19.85
2023-01-31T01:01:21.174Z,22.13
2023-01-31T01:03:49.096Z,20.55
2023-01-31T01:06:17.613Z,21.85
2023-01-31T01:08:45.929Z,20.90
2023-01-31T01:11:13.268Z,20.40
2023-01-31T01:13:41.497Z,20.52
2023-01-31T01:16:13.899Z,20.42
2023-01-31T01:18:41.785Z,20.75
2023-01-31T01:21:21.164Z,19.65
2023-01-31T01:23:50.593Z,20.73
2023-01-31T01:26:24.545Z,19.88
2023-01-31T01:28:53.158Z,19.63
2023-01-31T01:31:21.361Z,20.45
2023-01-31T01:33:49.615Z,20.55
2023-01-31T01:36:22.154Z,21.10
2023-01-31T01:38:49.624Z,19.58
2023-01-31T01:41:17.319Z,20.77
2023-01-31T01:43:53.742Z,20.45
2023-01-31T01:46:31.753Z,20.63
2023-01-31T01:49:23.288Z,19.30
2023-01-31T01:51:52.987Z,20.23
2023-01-31T01:54:26.056Z,19.00
2023-01-31T01:56:59.724Z,19.80
2023-01-31T01:59:42.923Z,19.90
2023-01-31T02:02:10.463Z,19.70
2023-01-31T02:04:40.698Z,20.48
2023-01-31T02:07:09.674Z,20.98
2023-01-31T02:09:52.912Z,18.88
2023-01-31T02:12:20.998Z,19.40
2023-01-31T02:14:49.422Z,18.90
2023-01-31T02:17:18.894Z,20.05
2023-01-31T02:20:06.446Z,19.95
2023-01-31T02:22:47.533Z,19.38
2023-01-31T02:25:19.858Z,18.95
2023-01-31T02:28:12.527Z,19.60
2023-01-31T02:31:07.711Z,19.23
2023-01-31T02:33:50.632Z,19.25
2023-01-31T02:36:18.240Z,19.98
2023-01-31T02:39:00.015Z,19.15
2023-01-31T02:41:42.323Z,20.42
2023-01-31T02:44:46.699Z,18.95
2023-01-31T02:47:38.701Z,18.23
2023-01-31T02:50:29.633Z,18.15
2023-01-31T02:53:00.207Z,18.73
2023-01-31T02:55:53.395Z,18.60
2023-01-31T02:58:23.214Z,18.55
2023-01-31T03:00:51.887Z,19.20
2023-01-31T03:03:26.856Z,18.50
2023-01-31T03:06:24.631Z,18.02
2023-01-31T03:09:11.864Z,18.13
2023-01-31T03:12:07.974Z,17.80
2023-01-31T03:14:40.943Z,18.27
2023-01-31T03:17:34.853Z,17.63
2023-01-31T03:20:31.223Z,17.40
2023-01-31T03:23:06.888Z,17.50
2023-01-31T03:25:37.249Z,17.48
2023-01-31T03:28:11.407Z,17.73
2023-01-31T03:31:02.254Z,17.65
2023-01-31T03:33:35.300Z,16.50
2023-01-31T03:36:20.191Z,17.00
2023-01-31T03:39:05.280Z,17.13
2023-01-31T03:42:02.259Z,16.85
2023-01-31T03:44:42.659Z,16.10
2023-01-31T03:47:30.333Z,17.23
2023-01-31T03:50:08.710Z,16.98
2023-01-31T03:52:40.966Z,17.10
2023-01-31T03:55:15.931Z,16.92
2023-01-31T03:57:46.082Z,16.05
2023-01-31T04:00:16.727Z,15.60
2023-01-31T04:02:54.981Z,16.48
2023-01-31T04:05:30.542Z,16.42
2023-01-31T04:07:59.623Z,16.42
2023-01-31T04:10:28.935Z,17.40
2023-01-31T04:12:56.276Z,15.98
2023-01-31T04:15:23.751Z,15.57
2023-01-31T04:17:51.123Z,16.05
2023-01-31T04:20:18.566Z,15.65
2023-01-31T04:22:46.092Z,16.05
2023-01-31T04:25:13.457Z,14.80
2023-01-31T04:27:40.861Z,15.20
2023-01-31T04:30:08.763Z,15.38
2023-01-31T04:32:36.593Z,15.45
2023-01-31T04:35:04.695Z,15.93
2023-01-31T04:37:32.251Z,15.27
2023-01-31T04:39:59.520Z,15.80
2023-01-31T04:42:26.839Z,14.73
2023-01-31T04:44:54.167Z,15.57
2023-01-31T04:47:21.610Z,14.73
2023-01-31T04:49:48.961Z,15.18
2023-01-31T04:52:16.325Z,16.13
2023-01-31T04:54:43.762Z,15.23
2023-01-31T04:57:11.124Z,14.65
2023-01-31T04:59:38.455Z,14.60
2023-01-31T05:02:06.265Z,15.30
2023-01-31T05:04:33.698Z,15.75
2023-01-31T05:07:01.066Z,15.57
2023-01-31T05:09:28.417Z,13.85
2023-01-31T05:11:55.735Z,13.93
2023-01-31T05:14:23.164Z,15.70
2023-01-31T05:16:50.599Z,13.85
2023-01-31T05:19:18.003Z,14.10
2023-01-31T05:22:00.625Z,14.35
2023-01-31T05:24:31.394Z,14.40
2023-01-31T05:27:01.489Z,14.30
2023-01-31T05:29:31.102Z,13.68
2023-01-31T05:32:00.716Z,14.65
2023-01-31T05:34:33.455Z,15.07
2023-01-31T05:37:02.426Z,14.55
2023-01-31T05:39:30.320Z,13.35
2023-01-31T05:41:57.648Z,13.77
2023-01-31T05:44:24.923Z,13.88
2023-01-31T05:46:52.244Z,13.38
2023-01-31T05:49:19.626Z,13.35
2023-01-31T05:51:46.980Z,13.38
2023-01-31T05:54:14.409Z,13.48
2023-01-31T05:56:41.704Z,12.52
2023-01-31T05:59:09.092Z,13.98
2023-01-31T06:01:36.539Z,12.15
2023-01-31T06:04:03.885Z,14.20
2023-01-31T06:06:31.227Z,12.80
2023-01-31T06:08:58.933Z,12.90
2023-01-31T06:11:26.429Z,13.43
2023-01-31T06:13:57.682Z,15.15
2023-01-31T06:16:25.361Z,24.35
2023-01-31T06:18:52.782Z,34.40
2023-01-31T06:21:20.166Z,34.42
2023-01-31T06:23:47.981Z,48.38
2023-01-31T06:26:15.319Z,45.90
2023-01-31T06:28:44.533Z,45.17
2023-01-31T06:31:13.742Z,48.67
2023-01-31T06:33:47.322Z,42.42
2023-01-31T06:36:18.860Z,42.42
2023-01-31T06:38:51.391Z,38.10
2023-01-31T06:41:21.544Z,38.70
2023-01-31T06:43:49.172Z,36.63
2023-01-31T06:46:17.016Z,33.88
2023-01-31T06:48:44.792Z,34.20
2023-01-31T06:51:12.153Z,33.17
2023-01-31T06:53:39.500Z,32.47
2023-01-31T06:56:07.704Z,32.83
2023-01-31T06:58:35.073Z,31.13
2023-01-31T07:01:10.633Z,28.70
2023-01-31T07:03:38.749Z,31.65
2023-01-31T07:06:07.267Z,32.78
2023-01-31T07:08:36.252Z,29.38
2023-01-31T07:11:04.771Z,26.38
2023-01-31T07:13:32.633Z,25.40
2023-01-31T07:16:00.048Z,24.38
2023-01-31T07:18:27.475Z,26.35
2023-01-31T07:20:54.989Z,24.60
2023-01-31T07:23:22.337Z,22.85
2023-01-31T07:25:49.680Z,23.55
2023-01-31T07:28:17.043Z,22.98
2023-01-31T07:30:46.221Z,23.77
2023-01-31T07:33:13.729Z,21.58
2023-01-31T07:35:43.455Z,21.88
2023-01-31T07:38:11.557Z,21.77
2023-01-31T07:40:40.181Z,22.15
2023-01-31T07:43:07.614Z,20.27
2023-01-31T07:45:35.278Z,20.73
2023-01-31T07:48:02.966Z,20.45
2023-01-31T07:50:30.809Z,19.52
2023-01-31T07:52:59.176Z,19.55
2023-01-31T07:55:26.924Z,18.85
2023-01-31T07:57:54.351Z,18.08
2023-01-31T08:00:40.642Z,19.20
2023-01-31T08:03:34.034Z,16.85
2023-01-31T08:06:03.777Z,17.25
2023-01-31T08:08:31.212Z,15.70
2023-01-31T08:10:58.647Z,16.20
2023-01-31T08:13:26.978Z,17.38
2023-01-31T08:15:54.494Z,16.10
2023-01-31T08:18:21.851Z,16.25
2023-01-31T08:20:49.781Z,15.30
2023-01-31T08:23:17.229Z,17.52
2023-01-31T08:25:44.709Z,14.60
2023-01-31T08:28:12.178Z,15.23
2023-01-31T08:30:41.604Z,14.95
2023-01-31T08:33:10.515Z,15.63
2023-01-31T08:35:38.303Z,14.30
2023-01-31T08:38:16.101Z,13.93
2023-01-31T08:40:44.345Z,13.25
2023-01-31T08:43:11.731Z,14.27
2023-01-31T08:45:39.288Z,15.63
2023-01-31T08:48:06.829Z,14.65
2023-01-31T08:50:34.198Z,16.33
2023-01-31T08:53:03.966Z,15.60
2023-01-31T08:55:34.603Z,14.90
2023-01-31T08:58:02.737Z,15.40
2023-01-31T09:00:30.500Z,15.65
2023-01-31T09:02:59.977Z,14.13
2023-01-31T09:05:29.203Z,13.45
2023-01-31T09:07:57.132Z,13.02
2023-01-31T09:10:24.863Z,12.05
2023-01-31T09:12:52.263Z,12.65
2023-01-31T09:15:20.168Z,12.13
2023-01-31T09:17:47.841Z,12.40
2023-01-31T09:20:15.115Z,10.95
2023-01-31T09:22:42.541Z,11.38
2023-01-31T09:25:10.374Z,11.15
2023-01-31T09:27:39.183Z,10.98
2023-01-31T09:30:08.322Z,11.75
2023-01-31T09:32:37.244Z,11.98
2023-01-31T09:35:04.903Z,11.05
2023-01-31T09:37:32.353Z,11.30
2023-01-31T09:39:59.648Z,12.93
2023-01-31T09:42:33.789Z,11.77
2023-01-31T09:45:32.070Z,12.88
2023-01-31T09:48:02.256Z,13.38
2023-01-31T09:50:45.232Z,12.13
2023-01-31T09:53:21.804Z,11.75
2023-01-31T09:56:16.046Z,12.02
2023-01-31T09:58:46.159Z,12.35
2023-01-31T10:01:28.213Z,13.05
2023-01-31T10:06:29.291Z,12.50
2023-01-31T10:09:03.190Z,11.95
2023-01-31T10:11:43.333Z,13.23
2023-01-31T10:14:33.115Z,11.90
2023-01-31T10:17:08.998Z,12.15
2023-01-31T10:20:03.018Z,12.02
2023-01-31T10:22:42.994Z,12.13
2023-01-31T10:25:21.148Z,11.45
2023-01-31T10:28:00.377Z,11.77
2023-01-31T10:30:45.655Z,12.05
2023-01-31T10:33:48.064Z,12.00
2023-01-31T10:36:25.167Z,11.77
2023-01-31T10:39:14.874Z,11.88
2023-01-31T10:41:51.385Z,10.88
2023-01-31T10:44:35.935Z,12.38
2023-01-31T10:47:08.075Z,11.05
2023-01-31T10:49:35.963Z,14.40
2023-01-31T10:52:34.008Z,12.90
2023-01-31T10:55:23.236Z,18.80
2023-01-31T10:57:51.510Z,18.73
2023-01-31T11:00:26.784Z,14.20
2023-01-31T11:02:54.274Z,15.93
2023-01-31T11:05:24.373Z,16.80
2023-01-31T11:07:52.043Z,16.67
2023-01-31T11:10:28.558Z,18.75
2023-01-31T11:15:25.237Z,18.40
2023-01-31T11:17:53.585Z,15.73
2023-01-31T11:20:36.531Z,14.50
2023-01-31T11:23:06.609Z,14.55
2023-01-31T11:25:34.596Z,14.98
2023-01-31T11:28:05.192Z,13.00
2023-01-31T11:30:36.241Z,14.05
2023-01-31T11:33:03.673Z,13.07
2023-01-31T11:35:33.368Z,13.05
2023-01-31T11:38:04.102Z,12.30
2023-01-31T11:40:33.195Z,12.02
2023-01-31T11:43:02.002Z,11.48
2023-01-31T11:45:36.130Z,11.43
2023-01-31T11:48:14.902Z,11.27
2023-01-31T11:50:52.188Z,11.73
2023-01-31T11:53:25.948Z,11.40
2023-01-31T11:55:57.276Z,11.85
2023-01-31T11:58:37.026Z,10.88
2023-01-31T12:01:16.795Z,10.82
2023-01-31T12:04:02.703Z,10.18
2023-01-31T12:06:40.110Z,9.85
2023-01-31T12:09:22.696Z,10.25
2023-01-31T12:11:58.558Z,9.68
2023-01-31T12:14:39.561Z,9.73
2023-01-31T12:17:12.231Z,9.82
2023-01-31T12:19:59.000Z,9.40
2023-01-31T12:22:47.042Z,9.70
2023-01-31T12:25:31.923Z,9.60
2023-01-31T12:28:02.352Z,9.63
2023-01-31T12:30:55.119Z,10.20
2023-01-31T12:33:49.216Z,10.10
2023-01-31T12:36:30.297Z,9.63
2023-01-31T12:39:09.378Z,9.35
2023-01-31T12:42:03.646Z,9.82
2023-01-31T12:45:15.468Z,9.00
2023-01-31T12:48:10.419Z,9.38
2023-01-31T12:50:51.911Z,8.73
2023-01-31T12:53:43.740Z,10.05
2023-01-31T12:56:23.274Z,9.45
2023-01-31T12:59:02.933Z,9.52
2023-01-31T13:01:51.446Z,8.45
2023-01-31T13:04:21.717Z,8.77
2023-01-31T13:06:54.732Z,8.30
2023-01-31T13:09:26.946Z,8.20
2023-01-31T13:12:09.635Z,7.65
2023-01-31T13:14:41.919Z,8.13
2023-01-31T13:17:13.635Z,7.65
2023-01-31T13:19:52.175Z,7.53
2023-01-31T13:22:30.298Z,8.13
2023-01-31T13:25:33.505Z,7.55
2023-01-31T13:28:12.792Z,7.82
2023-01-31T13:30:48.932Z,7.78
2023-01-31T13:33:35.563Z,7.50
2023-01-31T13:36:15.748Z,7.68
2023-01-31T13:38:44.794Z,7.32
2023-01-31T13:41:33.504Z,7.47
2023-01-31T13:44:02.762Z,7.78
2023-01-31T13:46:43.111Z,7.65
2023-01-31T13:49:28.308Z,7.35
2023-01-31T13:52:01.981Z,7.43
2023-01-31T13:54:52.010Z,7.63
2023-01-31T13:57:33.647Z,7.10
2023-01-31T14:00:34.919Z,7.53
2023-01-31T14:03:10.382Z,7.88
2023-01-31T14:05:49.195Z,7.03
2023-01-31T14:08:39.133Z,7.10
2023-01-31T14:11:18.948Z,7.32
2023-01-31T14:14:10.031Z,7.03
2023-01-31T14:16:43.404Z,7.40
2023-01-31T14:19:19.751Z,7.50
2023-01-31T14:22:03.139Z,7.43
2023-01-31T14:24:53.380Z,6.85
2023-01-31T14:27:39.491Z,7.00
2023-01-31T14:30:07.096Z,7.00
2023-01-31T14:33:02.904Z,7.97
2023-01-31T14:35:51.107Z,7.32
2023-01-31T14:38:43.152Z,6.80
2023-01-31T14:41:52.734Z,6.78
2023-01-31T14:44:45.094Z,7.18
2023-01-31T14:47:31.665Z,7.20
2023-01-31T14:50:46.451Z,6.90
2023-01-31T14:53:55.706Z,6.90
2023-01-31T14:56:38.185Z,6.85
2023-01-31T14:59:19.019Z,6.85
2023-01-31T15:01:47.196Z,7.40
2023-01-31T15:04:22.233Z,7.03
2023-01-31T15:06:52.525Z,6.82
2023-01-31T15:09:24.498Z,7.85
2023-01-31T15:11:56.389Z,6.90
2023-01-31T15:14:36.036Z,7.68
2023-01-31T15:17:06.833Z,7.18
2023-01-31T15:19:46.919Z,7.18
2023-01-31T15:22:18.076Z,7.85
2023-01-31T15:24:49.156Z,7.68
2023-01-31T15:27:16.389Z,6.72
2023-01-31T15:29:56.306Z,7.35
2023-01-31T15:32:33.560Z,7.05
2023-01-31T15:35:22.878Z,6.47
2023-01-31T15:38:02.754Z,7.07
2023-01-31T15:40:30.913Z,6.80
2023-01-31T15:43:18.302Z,7.45
2023-01-31T15:45:47.744Z,7.72
2023-01-31T15:48:17.009Z,7.05
2023-01-31T15:50:51.937Z,7.45
2023-01-31T15:53:23.555Z,6.88
2023-01-31T15:55:56.982Z,7.35
2023-01-31T15:58:27.479Z,7.10
2023-01-31T16:00:57.493Z,7.45
2023-01-31T16:03:27.973Z,8.43
2023-01-31T16:05:57.852Z,7.10
2023-01-31T16:08:36.187Z,7.72
2023-01-31T16:11:06.045Z,7.80
2023-01-31T16:13:39.614Z,7.35
2023-01-31T16:16:14.302Z,7.70
2023-01-31T16:18:47.498Z,7.63
2023-01-31T16:21:33.587Z,7.10
2023-01-31T16:24:00.977Z,7.35
2023-01-31T16:26:33.975Z,6.75
2023-01-31T16:29:08.038Z,8.23
2023-01-31T16:31:45.085Z,7.78
2023-01-31T16:34:31.934Z,8.40
2023-01-31T16:37:07.219Z,8.25
2023-01-31T16:39:46.615Z,8.30
2023-01-31T16:42:21.137Z,7.88
2023-01-31T16:44:49.559Z,8.75
2023-01-31T16:47:34.351Z,8.18
2023-01-31T16:50:24.713Z,8.82
2023-01-31T16:53:19.317Z,9.50
2023-01-31T16:56:06.712Z,8.15
2023-01-31T16:58:42.959Z,8.48
2023-01-31T17:01:15.820Z,9.18
2023-01-31T17:03:43.547Z,9.10
2023-01-31T17:06:19.586Z,9.18
2023-01-31T17:08:47.025Z,9.32
2023-01-31T17:11:34.083Z,10.05
2023-01-31T17:14:04.491Z,9.70
2023-01-31T17:16:31.882Z,10.90
2023-01-31T17:18:59.310Z,10.60
2023-01-31T17:21:28.380Z,9.98
2023-01-31T17:23:55.712Z,10.75
2023-01-31T17:26:24.020Z,10.63
2023-01-31T17:29:01.489Z,14.45
2023-01-31T17:31:31.426Z,12.88
2023-01-31T17:33:59.011Z,14.10
2023-01-31T17:36:26.383Z,11.52
2023-01-31T17:38:53.619Z,14.27
2023-01-31T17:41:24.575Z,11.63
2023-01-31T17:43:52.233Z,13.07
2023-01-31T17:46:20.063Z,12.43
2023-01-31T17:48:47.510Z,11.23
2023-01-31T17:51:14.925Z,11.27
2023-01-31T17:53:49.921Z,13.07
2023-01-31T17:56:18.691Z,11.05
2023-01-31T17:58:46.130Z,11.75
2023-01-31T18:01:14.403Z,11.43
2023-01-31T18:03:42.427Z,12.50
2023-01-31T18:06:10.831Z,12.05
2023-01-31T18:08:38.883Z,10.90
2023-01-31T18:11:08.324Z,12.15
2023-01-31T18:13:38.127Z,11.60
2023-01-31T18:16:14.882Z,12.35
2023-01-31T18:18:45.633Z,12.45
2023-01-31T18:21:18.958Z,12.38
2023-01-31T18:23:51.223Z,11.93
2023-01-31T18:26:19.178Z,11.95
2023-01-31T18:28:46.595Z,12.57
2023-01-31T18:31:15.843Z,11.43
2023-01-31T18:33:45.393Z,10.95
2023-01-31T18:36:16.081Z,12.25
2023-01-31T18:38:45.262Z,11.43
2023-01-31T18:41:14.784Z,11.27
2023-01-31T18:43:43.106Z,11.70
2023-01-31T18:46:11.273Z,11.90
2023-01-31T18:48:40.458Z,11.23
2023-01-31T18:51:11.659Z,11.30
2023-01-31T18:53:41.405Z,10.93
2023-01-31T18:56:12.835Z,11.45
2023-01-31T18:58:41.605Z,11.80
2023-01-31T19:01:14.781Z,12.07
2023-01-31T19:03:43.002Z,12.85
2023-01-31T19:06:13.360Z,12.23
2023-01-31T19:08:41.359Z,12.82
2023-01-31T19:11:13.939Z,11.77
2023-01-31T19:13:42.473Z,13.15
2023-01-31T19:16:19.093Z,11.93
2023-01-31T19:18:47.261Z,12.68
2023-01-31T19:21:25.315Z,17.23
2023-01-31T19:23:56.051Z,17.42
2023-01-31T19:26:24.655Z,24.98
2023-01-31T19:28:52.501Z,23.33
2023-01-31T19:31:22.630Z,24.23
2023-01-31T19:33:52.297Z,25.08
2023-01-31T19:36:22.622Z,27.48
2023-01-31T19:38:50.725Z,24.75
2023-01-31T19:41:20.975Z,23.80
2023-01-31T19:43:50.272Z,23.88
2023-01-31T19:46:18.577Z,24.02
2023-01-31T19:48:46.192Z,23.15
2023-01-31T19:51:15.758Z,21.92
2023-01-31T19:53:45.053Z,22.88
2023-01-31T19:56:12.707Z,24.00
2023-01-31T19:58:40.532Z,22.83
2023-01-31T20:01:13.094Z,24.10
2023-01-31T20:03:40.563Z,23.77
2023-01-31T20:06:13.368Z,22.33
2023-01-31T20:08:41.056Z,22.15
2023-01-31T20:11:10.940Z,22.08
2023-01-31T20:13:38.366Z,20.05
2023-01-31T20:16:08.924Z,20.27
2023-01-31T20:18:37.878Z,19.60
2023-01-31T20:21:06.425Z,19.77
2023-01-31T20:23:33.949Z,21.27
2023-01-31T20:26:01.405Z,20.67
2023-01-31T20:28:28.728Z,21.30
2023-01-31T20:30:56.126Z,23.30
2023-01-31T20:33:24.007Z,23.52
2023-01-31T20:35:51.380Z,21.45
2023-01-31T20:38:18.942Z,20.67
2023-01-31T20:40:50.436Z,19.67
2023-01-31T20:43:18.969Z,20.02
2023-01-31T20:45:46.544Z,20.25
2023-01-31T20:48:14.395Z,19.13
2023-01-31T20:50:41.739Z,19.13
2023-01-31T20:53:18.636Z,17.98
2023-01-31T20:55:47.013Z,21.33
2023-01-31T20:58:14.356Z,19.63
2023-01-31T21:00:41.668Z,17.88
2023-01-31T21:03:08.961Z,18.25
2023-01-31T21:05:38.856Z,18.08
2023-01-31T21:08:06.454Z,18.17
2023-01-31T21:10:33.832Z,17.63
2023-01-31T21:13:01.073Z,17.42
2023-01-31T21:15:28.954Z,17.42
2023-01-31T21:17:56.491Z,17.83
2023-01-31T21:20:24.059Z,16.73
2023-01-31T21:22:51.492Z,18.15
2023-01-31T21:25:18.794Z,18.63
2023-01-31T21:27:49.831Z,19.23
2023-01-31T21:30:17.918Z,17.13
2023-01-31T21:32:46.511Z,19.05
2023-01-31T21:35:14.790Z,18.55
2023-01-31T21:37:42.099Z,19.20
2023-01-31T21:40:10.085Z,18.38
2023-01-31T21:42:40.577Z,17.30
2023-01-31T21:45:10.169Z,17.90
2023-01-31T21:47:57.689Z,16.27
2023-01-31T21:50:25.603Z,17.10
2023-01-31T21:52:52.891Z,16.42
2023-01-31T21:55:22.471Z,16.48
2023-01-31T21:57:49.767Z,17.05
2023-01-31T22:00:17.661Z,16.73
2023-01-31T22:02:44.913Z,16.98
2023-01-31T22:05:12.299Z,15.88
2023-01-31T22:07:40.463Z,17.00
2023-01-31T22:10:07.978Z,15.95
2023-01-31T22:12:35.240Z,16.40
2023-01-31T22:15:02.589Z,16.98
2023-01-31T22:17:29.878Z,16.02
2023-01-31T22:19:57.204Z,15.43
2023-01-31T22:22:24.593Z,17.40
2023-01-31T22:24:51.974Z,22.20
2023-01-31T22:27:19.299Z,19.80
2023-01-31T22:29:46.625Z,18.38
2023-01-31T22:32:13.948Z,17.60
2023-01-31T22:34:41.375Z,17.65
2023-01-31T22:37:08.714Z,16.98
2023-01-31T22:39:36.124Z,16.70
2023-01-31T22:42:03.515Z,16.48
2023-01-31T22:44:30.807Z,18.48
2023-01-31T22:46:58.072Z,16.33
2023-01-31T22:49:25.349Z,17.38
2023-01-31T22:51:52.682Z,17.45
2023-01-31T22:54:20.811Z,16.73
2023-01-31T22:56:48.422Z,16.88
2023-01-31T22:59:15.764Z,16.80
2023-01-31T23:01:43.176Z,17.63
2023-01-31T23:04:11.158Z,18.08
2023-01-31T23:06:39.227Z,15.80
2023-01-31T23:09:06.615Z,16.65
2023-01-31T23:11:34.076Z,16.17
2023-01-31T23:14:01.458Z,16.95
2023-01-31T23:16:47.499Z,16.73
2023-01-31T23:19:16.422Z,16.67
2023-01-31T23:21:44.722Z,17.58
2023-01-31T23:24:14.586Z,17.45
2023-01-31T23:26:43.380Z,16.38
2023-01-31T23:29:10.964Z,16.30
2023-01-31T23:31:38.641Z,17.08
2023-01-31T23:34:07.479Z,17.42
2023-01-31T23:36:35.322Z,15.82
2023-01-31T23:39:02.649Z,15.80
2023-01-31T23:41:30.076Z,15.90
2023-01-31T23:43:57.353Z,16.35
2023-01-31T23:46:24.791Z,16.30
2023-01-31T23:48:52.204Z,18.02
2023-01-31T23:51:19.557Z,16.23
2023-01-31T23:53:46.920Z,16.23
2023-01-31T23:56:14.211Z,16.38
2023-01-31T23:58:41.483Z,16.38
